Time;durP1;ratioP1;P1;durP2;ratioP2;P2;SDS_P1;SDS_P2;PMS_P1;PMS_P2;Temp;Humidity;BMP_temperature;BMP_pressure;BME280_temperature;BME280_humidity;BME280_pressure;Samples;Min_cycle;Max_cycle;Signal;HPM_P1;HPM_P2
2023/10/25 00:01:32;;;;;;;16.33;11.93;;;8.30;99.90;;;;;;4890442;29;20126;-81
2023/10/25 00:03:57;;;;;;;17.15;13.20;;;8.30;99.90;;;;;;4913198;29;20092;-81
2023/10/25 00:06:23;;;;;;;14.57;11.82;;;8.20;99.90;;;;;;4909226;29;20519;-81
2023/10/25 00:08:49;;;;;;;18.42;12.38;;;8.20;99.90;;;;;;4917316;29;20495;-81
2023/10/25 00:11:14;;;;;;;18.35;13.82;;;8.20;99.90;;;;;;4894532;29;20047;-81
2023/10/25 00:13:40;;;;;;;18.65;13.00;;;8.20;99.90;;;;;;4881914;29;20476;-81
2023/10/25 00:16:05;;;;;;;27.73;16.25;;;8.20;99.90;;;;;;4893460;29;20039;-81
2023/10/25 00:18:31;;;;;;;14.00;12.07;;;8.20;99.90;;;;;;4917174;29;20043;-81
2023/10/25 00:20:56;;;;;;;19.40;13.90;;;8.20;99.90;;;;;;4877313;29;20040;-81
2023/10/25 00:23:22;;;;;;;21.60;14.40;;;8.10;99.90;;;;;;4921576;29;20488;-81
2023/10/25 00:25:49;;;;;;;19.55;14.43;;;8.10;99.90;;;;;;4877751;29;20040;-81
2023/10/25 00:28:15;;;;;;;28.75;16.95;;;8.00;99.90;;;;;;4916996;29;20481;-81
2023/10/25 00:30:41;;;;;;;22.27;14.63;;;8.00;99.90;;;;;;4910346;29;20036;-81
2023/10/25 00:33:07;;;;;;;20.38;14.43;;;8.00;99.90;;;;;;4914445;29;20517;-81
2023/10/25 00:35:32;;;;;;;27.27;17.92;;;8.00;99.90;;;;;;4891833;29;20041;-81
2023/10/25 00:37:58;;;;;;;28.73;18.15;;;8.00;99.90;;;;;;4901469;29;20032;-82
2023/10/25 00:40:24;;;;;;;23.80;17.17;;;7.90;99.90;;;;;;4910876;29;20033;-81
2023/10/25 00:42:49;;;;;;;33.15;19.65;;;7.90;99.90;;;;;;4915524;29;20044;-81
2023/10/25 00:45:15;;;;;;;27.38;17.38;;;7.90;99.90;;;;;;4888581;29;20567;-81
2023/10/25 00:47:43;;;;;;;22.27;16.15;;;7.80;99.90;;;;;;4885049;29;20043;-81
2023/10/25 00:50:09;;;;;;;23.05;15.85;;;7.80;99.90;;;;;;4876624;29;20044;-81
2023/10/25 00:52:39;;;;;;;41.20;21.55;;;7.80;99.90;;;;;;4905154;29;20104;-81
2023/10/25 00:55:05;;;;;;;22.60;14.85;;;7.80;99.90;;;;;;4890057;29;20071;-81
2023/10/25 00:57:32;;;;;;;24.83;17.30;;;7.80;99.90;;;;;;4899206;29;20066;-81
2023/10/25 01:00:00;;;;;;;26.10;17.80;;;7.80;99.90;;;;;;4929371;29;20044;-81
2023/10/25 01:02:26;;;;;;;22.05;15.70;;;7.80;99.90;;;;;;4927251;29;20048;-81
2023/10/25 01:04:52;;;;;;;39.63;22.00;;;7.80;99.90;;;;;;4890216;29;20146;-81
2023/10/25 01:07:17;;;;;;;35.67;21.17;;;7.80;99.90;;;;;;4912996;29;20388;-81
2023/10/25 01:09:43;;;;;;;21.23;17.02;;;7.70;99.90;;;;;;4884130;29;20518;-82
2023/10/25 01:12:09;;;;;;;27.92;19.38;;;7.70;99.90;;;;;;4919452;29;20584;-81
2023/10/25 01:14:36;;;;;;;24.63;18.73;;;7.70;99.90;;;;;;4870370;29;20117;-82
2023/10/25 01:17:02;;;;;;;30.33;19.30;;;7.70;99.90;;;;;;4894629;29;20119;-81
2023/10/25 01:19:27;;;;;;;25.98;18.35;;;7.70;99.90;;;;;;4911782;29;20037;-82
2023/10/25 01:21:53;;;;;;;32.65;20.13;;;7.70;99.90;;;;;;4906014;29;20044;-81
2023/10/25 01:24:20;;;;;;;20.98;17.23;;;7.60;99.90;;;;;;4887950;29;20049;-81
2023/10/25 01:26:46;;;;;;;30.90;21.33;;;7.60;99.90;;;;;;4904704;29;20041;-81
2023/10/25 01:29:11;;;;;;;28.85;20.90;;;7.60;99.90;;;;;;4893323;29;20049;-82
2023/10/25 01:31:37;;;;;;;32.25;21.10;;;7.60;99.90;;;;;;4915533;29;20055;-81
2023/10/25 01:34:02;;;;;;;23.85;20.52;;;7.60;99.90;;;;;;4908872;29;20048;-81
2023/10/25 01:36:28;;;;;;;39.55;25.30;;;7.60;99.90;;;;;;4876496;29;20066;-81
2023/10/25 01:38:53;;;;;;;27.08;20.38;;;7.60;99.90;;;;;;4908799;29;20399;-81
2023/10/25 01:41:19;;;;;;;37.47;24.40;;;7.60;99.90;;;;;;4930374;29;20112;-81
2023/10/25 01:43:45;;;;;;;39.28;27.20;;;7.60;99.90;;;;;;4907867;29;20040;-81
2023/10/25 01:46:11;;;;;;;39.35;25.13;;;7.60;99.90;;;;;;4907439;29;20044;-81
2023/10/25 01:48:37;;;;;;;34.60;25.25;;;7.60;99.90;;;;;;4892984;29;20066;-81
2023/10/25 01:51:06;;;;;;;33.92;26.33;;;7.50;99.90;;;;;;4888633;29;20040;-81
2023/10/25 01:53:34;;;;;;;36.38;27.73;;;7.50;99.90;;;;;;4888027;29;20486;-81
2023/10/25 01:56:00;;;;;;;38.30;28.88;;;7.50;99.90;;;;;;4911824;29;20044;-82
2023/10/25 01:58:26;;;;;;;43.70;30.00;;;7.50;99.90;;;;;;4863745;29;20037;-81
2023/10/25 02:00:51;;;;;;;49.75;32.28;;;7.50;99.90;;;;;;4899231;29;20111;-81
2023/10/25 02:03:17;;;;;;;59.83;36.58;;;7.40;99.90;;;;;;4869853;29;20041;-81
2023/10/25 02:05:43;;;;;;;29.10;24.98;;;7.50;99.90;;;;;;4900163;29;20059;-81
2023/10/25 02:08:09;;;;;;;47.97;30.60;;;7.50;99.90;;;;;;4910487;29;20047;-81
2023/10/25 02:10:34;;;;;;;39.25;29.15;;;7.50;99.90;;;;;;4889739;29;20135;-81
2023/10/25 02:13:00;;;;;;;45.03;33.05;;;7.50;99.90;;;;;;4866963;29;20037;-82
2023/10/25 02:15:27;;;;;;;52.65;34.00;;;7.40;99.90;;;;;;4900920;29;20200;-81
2023/10/25 02:17:52;;;;;;;42.83;32.13;;;7.40;99.90;;;;;;4864726;29;20523;-81
2023/10/25 02:20:18;;;;;;;45.17;33.10;;;7.40;99.90;;;;;;4893002;29;20040;-81
2023/10/25 02:22:44;;;;;;;54.60;37.63;;;7.40;99.90;;;;;;4859492;29;20043;-82
2023/10/25 02:25:09;;;;;;;65.57;39.13;;;7.40;99.90;;;;;;4875957;29;20044;-81
2023/10/25 02:27:35;;;;;;;55.90;35.38;;;7.40;99.90;;;;;;4883836;29;20144;-81
2023/10/25 02:30:00;;;;;;;62.75;38.03;;;7.40;99.90;;;;;;4874803;29;20043;-82
2023/10/25 02:32:26;;;;;;;82.72;42.28;;;7.40;99.90;;;;;;4891234;29;20452;-81
2023/10/25 02:34:51;;;;;;;42.63;35.17;;;7.40;99.90;;;;;;4868154;29;20040;-82
2023/10/25 02:37:17;;;;;;;48.58;34.58;;;7.30;99.90;;;;;;4892669;29;20040;-81
2023/10/25 02:39:43;;;;;;;72.95;39.50;;;7.30;99.90;;;;;;4874888;29;20032;-81
2023/10/25 02:42:09;;;;;;;59.20;35.42;;;7.30;99.90;;;;;;4877221;29;20063;-81
2023/10/25 02:44:34;;;;;;;71.13;42.17;;;7.20;99.90;;;;;;4895443;29;20039;-82
2023/10/25 02:47:00;;;;;;;37.20;28.92;;;7.30;99.90;;;;;;4864600;29;20333;-81
2023/10/25 02:49:26;;;;;;;47.53;34.63;;;7.20;99.90;;;;;;4871594;29;20047;-81
2023/10/25 02:51:51;;;;;;;45.05;32.65;;;7.20;99.90;;;;;;4886624;29;20041;-81
2023/10/25 02:54:17;;;;;;;49.97;33.58;;;7.20;99.90;;;;;;4918665;29;20080;-81
2023/10/25 02:56:43;;;;;;;48.00;33.17;;;7.20;99.90;;;;;;4894914;29;20079;-81
2023/10/25 02:59:09;;;;;;;57.72;35.30;;;7.20;99.90;;;;;;4882158;29;20039;-82
2023/10/25 03:01:34;;;;;;;56.15;33.83;;;7.20;99.90;;;;;;4890284;29;20051;-82
2023/10/25 03:04:01;;;;;;;53.53;31.67;;;7.20;99.90;;;;;;4864563;29;20091;-82
2023/10/25 03:06:26;;;;;;;45.80;31.85;;;7.20;99.90;;;;;;4874010;29;20149;-81
2023/10/25 03:08:52;;;;;;;61.17;33.33;;;7.20;99.90;;;;;;4886706;29;20267;-82
2023/10/25 03:11:17;;;;;;;55.10;32.10;;;7.20;99.90;;;;;;4876231;29;20032;-82
2023/10/25 03:13:43;;;;;;;36.22;27.88;;;7.20;99.90;;;;;;4895439;29;20045;-82
2023/10/25 03:16:09;;;;;;;47.30;30.02;;;7.10;99.90;;;;;;4869893;29;20039;-81
2023/10/25 03:18:35;;;;;;;43.78;29.42;;;7.10;99.90;;;;;;4906321;29;20099;-81
2023/10/25 03:21:04;;;;;;;39.80;29.35;;;7.10;99.90;;;;;;4891771;29;20041;-81
2023/10/25 03:23:31;;;;;;;69.78;39.03;;;7.00;99.90;;;;;;4882826;29;20123;-81
2023/10/25 03:26:06;;;;;;;64.82;36.38;;;7.00;99.90;;;;;;4891315;29;20488;-81
2023/10/25 03:28:33;;;;;;;40.35;29.77;;;7.00;99.90;;;;;;4906269;29;20040;-81
2023/10/25 03:31:04;;;;;;;43.00;30.05;;;7.00;99.90;;;;;;4907823;29;20472;-81
2023/10/25 03:33:30;;;;;;;39.22;29.30;;;7.00;99.90;;;;;;4898400;29;20412;-81
2023/10/25 03:35:55;;;;;;;60.25;33.67;;;7.00;99.90;;;;;;4922882;29;20032;-81
2023/10/25 03:38:21;;;;;;;43.25;30.85;;;7.00;99.90;;;;;;4906160;29;20048;-81
2023/10/25 03:40:47;;;;;;;35.08;28.35;;;7.00;99.90;;;;;;4872626;29;20124;-81
2023/10/25 03:43:13;;;;;;;61.70;36.75;;;7.00;99.90;;;;;;4874974;29;20054;-81
2023/10/25 03:45:38;;;;;;;52.67;34.08;;;7.00;99.90;;;;;;4870120;29;20048;-81
2023/10/25 03:48:04;;;;;;;63.67;35.97;;;7.00;99.90;;;;;;4904079;29;20477;-81
2023/10/25 03:50:30;;;;;;;58.08;33.47;;;6.90;99.90;;;;;;4888122;29;20391;-82
2023/10/25 03:52:55;;;;;;;60.58;32.95;;;6.90;99.90;;;;;;4894735;29;20076;-81
2023/10/25 03:55:21;;;;;;;47.53;32.83;;;6.90;99.90;;;;;;4869624;29;20041;-81
2023/10/25 03:57:47;;;;;;;36.83;28.63;;;6.90;99.90;;;;;;4875160;29;20064;-81
2023/10/25 04:00:13;;;;;;;64.38;39.15;;;6.90;99.90;;;;;;4911356;29;20040;-81
2023/10/25 04:02:40;;;;;;;46.40;32.95;;;6.90;99.90;;;;;;4894127;29;20090;-81
2023/10/25 04:05:05;;;;;;;55.50;34.13;;;6.90;99.90;;;;;;4902728;29;20044;-82
2023/10/25 04:07:31;;;;;;;85.13;41.47;;;6.90;99.90;;;;;;4873014;29;20048;-82
2023/10/25 04:09:56;;;;;;;45.78;31.60;;;6.90;99.90;;;;;;4911353;29;20094;-81
2023/10/25 04:12:22;;;;;;;59.00;36.55;;;6.80;99.90;;;;;;4913715;29;20131;-82
2023/10/25 04:14:48;;;;;;;58.40;36.97;;;6.80;99.90;;;;;;4910918;29;20040;-82
2023/10/25 04:17:13;;;;;;;68.15;40.83;;;6.80;99.90;;;;;;4874882;29;20049;-81
2023/10/25 04:19:40;;;;;;;52.17;36.00;;;6.80;99.90;;;;;;4899404;29;20043;-81
2023/10/25 04:22:06;;;;;;;81.07;41.63;;;6.80;99.90;;;;;;4901212;29;20048;-82
2023/10/25 04:24:32;;;;;;;41.53;31.92;;;6.80;99.90;;;;;;4929260;29;20138;-83
2023/10/25 04:27:00;;;;;;;85.05;45.10;;;6.80;99.90;;;;;;4881289;29;20048;-81
2023/10/25 04:29:26;;;;;;;69.82;42.40;;;6.80;99.90;;;;;;4882756;29;20048;-81
2023/10/25 04:31:52;;;;;;;54.20;36.22;;;6.80;99.90;;;;;;4882630;29;20104;-81
2023/10/25 04:34:17;;;;;;;49.90;34.25;;;6.80;99.90;;;;;;4873454;29;20040;-81
2023/10/25 04:36:43;;;;;;;49.92;37.88;;;6.70;99.90;;;;;;4887579;29;20028;-81
2023/10/25 04:39:09;;;;;;;52.92;38.50;;;6.80;99.90;;;;;;4913731;29;20474;-81
2023/10/25 04:41:35;;;;;;;76.25;42.40;;;6.70;99.90;;;;;;4915176;29;20075;-82
2023/10/25 04:44:01;;;;;;;46.05;36.17;;;6.70;99.90;;;;;;4881508;29;20507;-81
2023/10/25 04:46:26;;;;;;;53.42;38.20;;;6.70;99.90;;;;;;4878436;29;20119;-81
2023/10/25 04:48:52;;;;;;;57.22;38.50;;;6.70;99.90;;;;;;4898168;29;20507;-81
2023/10/25 04:51:18;;;;;;;43.95;33.10;;;6.70;99.90;;;;;;4897775;29;20411;-82
2023/10/25 04:53:44;;;;;;;62.50;40.33;;;6.60;99.90;;;;;;4888540;29;20491;-82
2023/10/25 04:56:10;;;;;;;50.30;37.63;;;6.60;99.90;;;;;;4914344;29;20095;-81
2023/10/25 04:58:35;;;;;;;55.70;36.78;;;6.60;99.90;;;;;;4885237;29;20402;-81
2023/10/25 05:01:11;;;;;;;73.93;42.08;;;6.50;99.90;;;;;;4907754;29;20601;-82
2023/10/25 05:03:36;;;;;;;76.68;42.08;;;6.50;99.90;;;;;;4921682;29;20400;-82
2023/10/25 05:06:05;;;;;;;71.53;42.42;;;6.50;99.90;;;;;;4872375;29;20048;-81
2023/10/25 05:08:31;;;;;;;56.75;39.60;;;6.40;99.90;;;;;;4899206;29;20044;-80
2023/10/25 05:10:59;;;;;;;59.50;39.17;;;6.50;99.90;;;;;;4916172;29;20615;-81
2023/10/25 05:13:24;;;;;;;50.47;36.15;;;6.40;99.90;;;;;;4907533;29;20045;-80
2023/10/25 05:15:50;;;;;;;49.60;37.30;;;6.40;99.90;;;;;;4886909;29;20401;-81
2023/10/25 05:18:16;;;;;;;50.70;36.55;;;6.40;99.90;;;;;;4893346;29;20036;-82
2023/10/25 05:20:42;;;;;;;59.90;38.75;;;6.40;99.90;;;;;;4908534;29;20040;-81
2023/10/25 05:23:09;;;;;;;81.53;46.65;;;6.40;99.90;;;;;;4896110;29;20033;-81
2023/10/25 05:25:36;;;;;;;59.22;38.20;;;6.50;99.90;;;;;;4875677;29;20044;-81
2023/10/25 05:28:01;;;;;;;63.45;38.10;;;6.40;99.90;;;;;;4909771;29;20036;-81
2023/10/25 05:30:27;;;;;;;46.67;35.95;;;6.40;99.90;;;;;;4891788;29;20095;-81
2023/10/25 05:32:59;;;;;;;64.75;42.08;;;6.40;99.90;;;;;;4874748;29;20080;-81
2023/10/25 05:35:25;;;;;;;37.50;31.92;;;6.40;99.90;;;;;;4891661;29;20452;-81
2023/10/25 05:37:51;;;;;;;54.80;38.67;;;6.30;99.90;;;;;;4909004;29;20044;-81
2023/10/25 05:40:17;;;;;;;62.20;41.38;;;6.30;99.90;;;;;;4881319;29;20099;-82
2023/10/25 05:42:47;;;;;;;55.33;38.28;;;6.30;99.90;;;;;;4900068;29;20134;-82
2023/10/25 05:45:14;;;;;;;58.47;39.60;;;6.30;99.90;;;;;;4894842;29;20040;-81
2023/10/25 05:47:40;;;;;;;66.43;41.90;;;6.30;99.90;;;;;;4890592;29;20422;-81
2023/10/25 05:50:07;;;;;;;53.88;38.80;;;6.30;99.90;;;;;;4876793;29;20044;-81
2023/10/25 05:52:33;;;;;;;75.32;45.30;;;6.20;99.90;;;;;;4904350;29;20063;-80
2023/10/25 05:54:59;;;;;;;72.85;42.55;;;6.20;99.90;;;;;;4895117;29;20036;-81
2023/10/25 05:57:25;;;;;;;42.55;35.17;;;6.20;99.90;;;;;;4876353;29;20491;-82
2023/10/25 05:59:51;;;;;;;52.30;40.25;;;6.20;99.90;;;;;;4880206;29;20464;-81
2023/10/25 06:02:22;;;;;;;53.75;39.40;;;6.20;99.90;;;;;;4879877;29;20049;-81
2023/10/25 06:04:49;;;;;;;90.13;48.03;;;6.30;99.90;;;;;;4884189;29;20045;-81
2023/10/25 06:07:15;;;;;;;61.00;42.60;;;6.30;99.90;;;;;;4919066;29;20441;-80
2023/10/25 06:09:41;;;;;;;79.07;47.75;;;6.30;99.90;;;;;;4915543;29;20127;-81
2023/10/25 06:12:10;;;;;;;69.80;42.50;;;6.30;99.90;;;;;;4874268;29;20083;-81
2023/10/25 06:14:36;;;;;;;49.78;39.00;;;6.20;99.90;;;;;;4905827;29;20037;-81
2023/10/25 06:17:02;;;;;;;66.45;44.78;;;6.20;99.90;;;;;;4922976;29;20107;-84
2023/10/25 06:19:28;;;;;;;52.47;42.17;;;6.30;99.90;;;;;;4901663;29;20051;-83
2023/10/25 06:21:54;;;;;;;64.35;44.88;;;6.30;99.90;;;;;;4906932;29;20044;-82
2023/10/25 06:24:20;;;;;;;52.72;40.53;;;6.30;99.90;;;;;;4913905;29;20048;-84
2023/10/25 06:26:46;;;;;;;64.72;45.38;;;6.30;99.90;;;;;;4865426;29;20044;-82
2023/10/25 06:29:12;;;;;;;61.70;45.40;;;6.30;99.90;;;;;;4914788;29;20043;-82
2023/10/25 06:31:38;;;;;;;58.00;44.88;;;6.30;99.90;;;;;;4879985;29;20037;-82
2023/10/25 06:34:03;;;;;;;78.72;50.03;;;6.30;99.90;;;;;;4898304;29;20072;-81
2023/10/25 06:36:32;;;;;;;57.75;42.25;;;6.30;99.90;;;;;;4891425;29;20517;-82
2023/10/25 06:38:57;;;;;;;67.50;44.50;;;6.30;99.90;;;;;;4900469;29;20045;-83
2023/10/25 06:41:23;;;;;;;80.53;45.75;;;6.30;99.90;;;;;;4889989;29;20456;-83
2023/10/25 06:43:50;;;;;;;85.68;49.60;;;6.30;99.90;;;;;;4873865;29;20095;-84
2023/10/25 06:46:16;;;;;;;77.78;48.35;;;6.30;99.90;;;;;;4876152;29;20104;-83
2023/10/25 06:48:45;;;;;;;77.38;48.95;;;6.30;99.90;;;;;;4869855;29;20038;-83
2023/10/25 06:51:10;;;;;;;80.32;44.92;;;6.30;99.90;;;;;;4902667;29;20130;-83
2023/10/25 06:53:37;;;;;;;78.43;51.65;;;6.30;99.90;;;;;;4887645;29;20582;-83
2023/10/25 06:56:06;;;;;;;93.10;54.20;;;6.30;99.90;;;;;;4891846;29;20415;-83
2023/10/25 06:58:32;;;;;;;51.97;41.55;;;6.30;99.90;;;;;;4883724;29;20406;-83
2023/10/25 07:00:58;;;;;;;68.22;45.75;;;6.40;99.90;;;;;;4879299;29;20492;-83
2023/10/25 07:03:34;;;;;;;98.88;53.55;;;6.40;99.90;;;;;;4889936;29;20092;-82
2023/10/25 07:06:03;;;;;;;61.88;45.10;;;6.40;99.90;;;;;;4879970;29;20571;-82
2023/10/25 07:08:29;;;;;;;60.22;44.15;;;6.50;99.90;;;;;;4864611;29;20036;-83
2023/10/25 07:10:55;;;;;;;107.32;53.47;;;6.50;99.90;;;;;;4863883;29;20048;-83
2023/10/25 07:13:22;;;;;;;57.53;44.22;;;6.60;99.90;;;;;;4892869;29;20047;-83
2023/10/25 07:15:47;;;;;;;94.85;53.83;;;6.70;99.90;;;;;;4907609;29;20164;-82
2023/10/25 07:18:13;;;;;;;71.63;46.55;;;6.80;99.90;;;;;;4883108;29;20083;-83
2023/10/25 07:20:38;;;;;;;78.60;50.80;;;6.80;99.90;;;;;;4880619;29;20528;-85
2023/10/25 07:23:04;;;;;;;55.88;40.67;;;6.90;99.90;;;;;;4866679;29;20053;-84
2023/10/25 07:25:30;;;;;;;66.15;43.67;;;6.90;99.90;;;;;;4891454;29;20080;-84
2023/10/25 07:27:56;;;;;;;62.10;42.80;;;7.00;99.90;;;;;;4867844;29;20127;-84
2023/10/25 07:30:22;;;;;;;40.88;35.63;;;7.00;99.90;;;;;;4903004;29;20048;-83
2023/10/25 07:32:48;;;;;;;50.88;37.67;;;7.10;99.90;;;;;;4886683;29;20044;-87
2023/10/25 07:35:13;;;;;;;46.97;38.28;;;7.20;99.90;;;;;;4904357;29;20036;-87
2023/10/25 07:37:39;;;;;;;53.72;41.38;;;7.20;99.90;;;;;;4909153;29;20123;-85
2023/10/25 07:40:05;;;;;;;100.53;49.33;;;7.30;99.90;;;;;;4900384;29;20032;-84
2023/10/25 07:42:31;;;;;;;52.30;40.00;;;7.30;99.90;;;;;;4864213;29;20040;-85
2023/10/25 07:44:57;;;;;;;36.85;32.95;;;7.40;99.90;;;;;;4895230;29;20047;-84
2023/10/25 07:47:23;;;;;;;66.32;44.20;;;7.50;99.90;;;;;;4864540;29;20135;-85
2023/10/25 07:49:49;;;;;;;62.22;42.53;;;7.50;99.90;;;;;;4880110;29;20055;-84
2023/10/25 07:52:16;;;;;;;37.33;33.20;;;7.60;99.90;;;;;;4913061;29;20049;-84
2023/10/25 07:54:42;;;;;;;52.10;41.28;;;7.70;99.90;;;;;;4867798;29;20041;-85
2023/10/25 07:57:08;;;;;;;55.85;41.28;;;7.70;99.90;;;;;;4867933;29;20514;-85
2023/10/25 07:59:33;;;;;;;48.28;39.92;;;7.80;99.90;;;;;;4915045;29;20123;-85
2023/10/25 08:01:59;;;;;;;54.45;40.72;;;7.80;99.90;;;;;;4898962;29;20037;-84
2023/10/25 08:04:25;;;;;;;55.90;41.38;;;7.90;99.90;;;;;;4898850;29;20127;-83
2023/10/25 08:06:52;;;;;;;63.83;44.88;;;8.00;99.90;;;;;;4883406;29;20410;-84
2023/10/25 08:09:18;;;;;;;39.85;35.08;;;8.00;99.90;;;;;;4915186;29;20530;-84
2023/10/25 08:11:44;;;;;;;71.78;44.75;;;8.10;99.90;;;;;;4883373;29;20070;-85
2023/10/25 08:14:10;;;;;;;34.78;31.23;;;8.10;99.90;;;;;;4867976;29;20044;-84
2023/10/25 08:16:39;;;;;;;37.72;31.92;;;8.10;99.90;;;;;;4898685;29;20032;-84
2023/10/25 08:19:06;;;;;;;51.97;38.60;;;8.20;99.90;;;;;;4898962;29;20068;-85
2023/10/25 08:21:32;;;;;;;50.53;37.30;;;8.20;99.90;;;;;;4868115;29;20036;-85
2023/10/25 08:23:57;;;;;;;45.97;36.67;;;8.20;99.90;;;;;;4898804;29;20040;-85
2023/10/25 08:26:26;;;;;;;45.63;37.78;;;8.30;99.90;;;;;;4883221;29;20405;-84
2023/10/25 08:28:52;;;;;;;48.40;37.22;;;8.40;99.90;;;;;;4883192;29;20044;-83
2023/10/25 08:31:18;;;;;;;41.65;35.30;;;8.40;99.90;;;;;;4867370;29;20123;-85
2023/10/25 08:33:45;;;;;;;36.13;30.77;;;8.50;99.90;;;;;;4898355;29;20089;-85
2023/10/25 08:36:11;;;;;;;30.70;27.75;;;8.60;99.90;;;;;;4882702;29;20055;-85
2023/10/25 08:38:37;;;;;;;34.90;31.23;;;8.60;99.90;;;;;;4883537;29;20037;-84
2023/10/25 08:41:07;;;;;;;30.88;26.27;;;8.70;99.90;;;;;;4883427;29;20040;-84
2023/10/25 08:43:34;;;;;;;48.60;38.60;;;8.80;99.90;;;;;;4898960;29;20482;-85
2023/10/25 08:46:03;;;;;;;37.42;33.38;;;8.80;99.90;;;;;;4882965;29;20055;-84
2023/10/25 08:48:29;;;;;;;63.67;45.40;;;9.00;99.90;;;;;;4883197;29;20052;-85
2023/10/25 08:50:56;;;;;;;37.03;29.95;;;9.00;99.90;;;;;;4898658;29;20483;-85
2023/10/25 08:53:23;;;;;;;42.53;35.65;;;9.10;99.90;;;;;;4898085;29;20040;-84
2023/10/25 08:55:53;;;;;;;34.42;29.63;;;9.20;99.90;;;;;;4866802;29;20032;-84
2023/10/25 08:58:22;;;;;;;27.05;23.88;;;9.30;99.90;;;;;;4882490;29;20044;-84
2023/10/25 09:00:48;;;;;;;39.08;33.42;;;9.40;99.90;;;;;;4866633;29;20576;-84
2023/10/25 09:03:32;;;;;;;29.63;26.25;;;9.50;99.90;;;;;;4866734;29;20530;-85
2023/10/25 09:06:05;;;;;;;46.00;34.38;;;9.60;99.90;;;;;;4913384;29;20114;-84
2023/10/25 09:08:31;;;;;;;24.60;20.73;;;9.70;99.90;;;;;;4882769;29;20041;-83
2023/10/25 09:11:02;;;;;;;21.65;19.35;;;9.80;99.90;;;;;;4866757;29;20045;-85
2023/10/25 09:13:41;;;;;;;27.08;23.65;;;10.00;99.90;;;;;;4866584;29;20076;-85
2023/10/25 09:16:11;;;;;;;17.30;15.43;;;10.10;99.90;;;;;;4882043;29;20127;-85
2023/10/25 09:18:38;;;;;;;25.38;20.90;;;10.20;99.90;;;;;;4867025;29;20487;-85
2023/10/25 09:21:04;;;;;;;29.30;23.13;;;10.30;99.90;;;;;;4882193;29;20530;-84
2023/10/25 09:23:30;;;;;;;31.40;23.23;;;10.40;99.90;;;;;;4866791;29;20053;-85
2023/10/25 09:26:00;;;;;;;22.38;17.38;;;10.50;99.90;;;;;;4866477;29;20041;-85
2023/10/25 09:28:28;;;;;;;24.38;21.77;;;10.60;99.90;;;;;;4866437;29;20048;-85
2023/10/25 09:31:01;;;;;;;19.33;15.07;;;10.70;99.90;;;;;;4881772;29;20554;-84
2023/10/25 09:33:30;;;;;;;16.77;13.73;;;10.80;99.90;;;;;;4866545;29;20051;-85
2023/10/25 09:35:57;;;;;;;14.38;12.15;;;10.80;99.90;;;;;;4881922;29;20040;-85
2023/10/25 09:38:24;;;;;;;14.93;12.93;;;10.90;99.90;;;;;;4866338;29;20095;-85
2023/10/25 09:40:51;;;;;;;17.77;15.15;;;10.90;99.90;;;;;;4866176;29;20072;-85
2023/10/25 09:43:20;;;;;;;22.17;19.25;;;10.80;99.90;;;;;;4881603;29;20551;-84
2023/10/25 09:45:55;;;;;;;20.75;18.75;;;10.90;99.90;;;;;;4881592;29;20403;-84
2023/10/25 09:48:21;;;;;;;19.77;17.73;;;10.90;99.90;;;;;;4881489;29;20414;-84
2023/10/25 09:51:12;;;;;;;16.30;14.60;;;11.00;99.90;;;;;;4881383;29;20131;-85
2023/10/25 09:53:49;;;;;;;19.23;15.13;;;11.10;99.90;;;;;;4871019;29;20056;-83
2023/10/25 09:56:15;;;;;;;17.20;15.45;;;11.10;99.90;;;;;;4881318;29;20044;-84
2023/10/25 09:58:44;;;;;;;17.60;15.82;;;11.10;99.90;;;;;;4881472;29;20040;-84
2023/10/25 10:01:10;;;;;;;15.00;13.50;;;11.10;99.90;;;;;;4881048;29;20044;-85
2023/10/25 10:03:38;;;;;;;19.52;13.73;;;11.10;99.90;;;;;;4881214;29;20133;-84
2023/10/25 10:06:39;;;;;;;14.75;12.07;;;11.10;99.90;;;;;;4896548;29;20044;-84
2023/10/25 10:09:30;;;;;;;13.90;12.32;;;11.10;99.90;;;;;;4865584;29;20092;-84
2023/10/25 10:12:14;;;;;;;14.88;12.57;;;11.00;99.90;;;;;;4912289;29;20057;-84
2023/10/25 10:14:40;;;;;;;13.90;12.50;;;10.90;99.90;;;;;;4880569;29;20047;-84
2023/10/25 10:17:14;;;;;;;13.90;12.25;;;11.00;99.90;;;;;;4896366;29;20127;-85
2023/10/25 10:19:42;;;;;;;25.13;22.50;;;11.00;99.90;;;;;;4881235;29;20495;-84
2023/10/25 10:22:14;;;;;;;19.50;17.70;;;11.00;99.90;;;;;;4880649;29;20571;-84
2023/10/25 10:24:45;;;;;;;19.15;15.80;;;11.00;99.90;;;;;;4865563;29;20463;-84
2023/10/25 10:27:24;;;;;;;18.58;16.58;;;11.10;99.90;;;;;;4879955;29;20062;-84
2023/10/25 10:29:50;;;;;;;16.50;13.32;;;11.10;99.90;;;;;;4876886;29;20392;-84
2023/10/25 10:32:17;;;;;;;18.58;16.80;;;11.10;99.90;;;;;;4886952;29;20046;-84
2023/10/25 10:34:54;;;;;;;12.88;11.57;;;11.10;99.90;;;;;;4882331;29;20047;-84
2023/10/25 10:37:25;;;;;;;14.23;11.50;;;11.20;99.90;;;;;;4899990;29;20052;-83
2023/10/25 10:39:57;;;;;;;15.25;11.45;;;11.20;99.90;;;;;;4890872;29;20123;-83
2023/10/25 10:42:29;;;;;;;12.77;11.13;;;11.10;99.90;;;;;;4923124;29;20652;-84
2023/10/25 10:44:58;;;;;;;15.73;11.05;;;11.10;99.90;;;;;;4868736;29;20040;-82
2023/10/25 10:47:55;;;;;;;16.17;11.00;;;11.10;99.90;;;;;;4896588;29;20499;-83
2023/10/25 10:50:23;;;;;;;12.68;10.70;;;11.10;99.90;;;;;;4910028;29;20045;-82
2023/10/25 10:52:50;;;;;;;14.07;12.55;;;11.10;99.90;;;;;;4883456;29;20044;-83
2023/10/25 10:55:17;;;;;;;12.88;11.13;;;11.10;99.90;;;;;;4865748;29;20115;-82
2023/10/25 10:57:44;;;;;;;14.27;12.77;;;11.10;99.90;;;;;;4896284;29;20048;-83
2023/10/25 11:00:13;;;;;;;14.95;13.00;;;11.10;99.90;;;;;;4868846;29;20072;-83
2023/10/25 11:02:40;;;;;;;14.38;12.55;;;11.10;99.90;;;;;;4919932;29;20056;-83
2023/10/25 11:05:07;;;;;;;18.25;14.63;;;11.10;99.90;;;;;;4891737;29;20040;-82
2023/10/25 11:07:33;;;;;;;13.82;11.95;;;11.10;99.90;;;;;;4875637;29;20052;-82
2023/10/25 11:09:59;;;;;;;14.35;12.88;;;11.10;99.90;;;;;;4898701;29;20478;-82
2023/10/25 11:12:25;;;;;;;14.60;13.02;;;11.10;99.90;;;;;;4876593;29;20542;-82
2023/10/25 11:14:51;;;;;;;16.88;10.93;;;11.10;99.90;;;;;;4886015;29;20399;-81
2023/10/25 11:17:17;;;;;;;14.07;10.85;;;11.00;99.90;;;;;;4901189;29;20563;-82
2023/10/25 11:19:45;;;;;;;12.38;10.50;;;11.10;99.90;;;;;;4930096;29;20048;-83
2023/10/25 11:22:11;;;;;;;12.93;11.15;;;11.00;99.90;;;;;;4868829;29;20045;-81
2023/10/25 11:24:37;;;;;;;14.82;12.43;;;11.00;99.90;;;;;;4909355;29;20051;-81
2023/10/25 11:27:03;;;;;;;13.20;10.05;;;11.00;99.90;;;;;;4900863;29;20115;-84
2023/10/25 11:29:33;;;;;;;11.80;10.27;;;10.90;99.90;;;;;;4869326;29;20403;-83
2023/10/25 11:32:04;;;;;;;12.57;11.27;;;11.00;99.90;;;;;;4876699;29;20075;-81
2023/10/25 11:34:32;;;;;;;13.77;10.50;;;10.90;99.90;;;;;;4896089;29;20072;-81
2023/10/25 11:37:02;;;;;;;13.80;12.40;;;10.90;99.90;;;;;;4898748;29;20044;-81
2023/10/25 11:39:33;;;;;;;15.52;12.48;;;10.90;99.90;;;;;;4894422;29;20040;-82
2023/10/25 11:41:59;;;;;;;16.48;12.80;;;10.90;99.90;;;;;;4904884;29;20390;-82
2023/10/25 11:44:26;;;;;;;14.95;12.38;;;10.80;99.90;;;;;;4885274;29;20048;-82
2023/10/25 11:46:55;;;;;;;17.60;13.55;;;10.80;99.90;;;;;;4930226;29;20495;-82
2023/10/25 11:49:21;;;;;;;15.95;14.32;;;10.80;99.90;;;;;;4884139;29;20051;-82
2023/10/25 11:51:47;;;;;;;17.38;15.10;;;10.80;99.90;;;;;;4879997;29;20419;-81
2023/10/25 11:54:13;;;;;;;17.75;16.15;;;10.80;99.90;;;;;;4873622;29;20044;-82
2023/10/25 11:56:39;;;;;;;16.30;14.65;;;10.70;99.90;;;;;;4892935;29;20055;-81
2023/10/25 11:59:05;;;;;;;16.95;15.07;;;10.70;99.90;;;;;;4908180;29;20040;-81
2023/10/25 12:01:31;;;;;;;18.27;16.55;;;10.70;99.90;;;;;;4877876;29;20036;-81
2023/10/25 12:03:56;;;;;;;22.13;18.05;;;10.70;99.90;;;;;;4892404;29;20100;-81
2023/10/25 12:06:23;;;;;;;22.70;19.73;;;10.70;99.90;;;;;;4892900;29;20427;-81
2023/10/25 12:08:49;;;;;;;20.67;18.63;;;10.60;99.90;;;;;;4896456;29;20131;-82
2023/10/25 12:11:14;;;;;;;22.70;19.67;;;10.60;99.90;;;;;;4896097;29;20464;-81
2023/10/25 12:13:41;;;;;;;24.10;19.52;;;10.60;99.90;;;;;;4879419;29;20040;-82
2023/10/25 12:16:08;;;;;;;22.45;20.35;;;10.60;99.90;;;;;;4880013;29;20044;-83
2023/10/25 12:18:35;;;;;;;23.35;20.33;;;10.60;99.90;;;;;;4915950;29;20044;-81
2023/10/25 12:21:03;;;;;;;24.55;22.25;;;10.60;99.90;;;;;;4894640;29;20043;-82
2023/10/25 12:23:29;;;;;;;22.83;20.52;;;10.60;99.90;;;;;;4924512;29;20507;-81
2023/10/25 12:25:54;;;;;;;24.23;21.98;;;10.60;99.90;;;;;;4886826;29;20052;-82
2023/10/25 12:28:20;;;;;;;24.33;22.00;;;10.60;99.90;;;;;;4880354;29;20051;-82
2023/10/25 12:30:46;;;;;;;24.40;22.02;;;10.60;99.90;;;;;;4875491;29;20155;-81
2023/10/25 12:33:11;;;;;;;21.58;19.45;;;10.60;99.90;;;;;;4867399;29;20082;-81